createdAt,value
2022-11-05T00:02:14.463Z,13.40
2022-11-05T00:05:00.054Z,11.90
2022-11-05T00:07:50.510Z,10.45
2022-11-05T00:10:23.388Z,13.00
2022-11-05T00:13:11.143Z,11.40
2022-11-05T00:15:57.419Z,10.40
2022-11-05T00:18:26.995Z,11.30
2022-11-05T00:20:55.138Z,8.82
2022-11-05T00:23:41.214Z,14.77
2022-11-05T00:26:12.425Z,10.98
2022-11-05T00:28:44.002Z,14.77
2022-11-05T00:31:15.635Z,12.88
2022-11-05T00:33:45.414Z,13.40
2022-11-05T00:36:13.537Z,14.55
2022-11-05T00:38:44.980Z,11.35
2022-11-05T00:41:13.210Z,13.50
2022-11-05T00:43:58.746Z,15.85
2022-11-05T00:46:27.238Z,11.32
2022-11-05T00:49:14.636Z,11.70
2022-11-05T00:51:42.911Z,13.32
2022-11-05T00:54:11.355Z,11.13
2022-11-05T00:56:39.667Z,9.30
2022-11-05T00:59:08.110Z,11.75
2022-11-05T01:01:36.456Z,11.15
2022-11-05T01:04:08.664Z,9.38
2022-11-05T01:06:37.277Z,12.18
2022-11-05T01:09:05.708Z,11.18
2022-11-05T01:11:34.409Z,10.32
2022-11-05T01:14:05.133Z,9.45
2022-11-05T01:16:33.707Z,10.25
2022-11-05T01:19:03.723Z,11.27
2022-11-05T01:21:34.106Z,12.82
2022-11-05T01:24:03.136Z,9.52
2022-11-05T01:26:31.975Z,9.45
2022-11-05T01:29:01.584Z,8.13
2022-11-05T01:31:30.210Z,10.20
2022-11-05T01:33:58.816Z,13.27
2022-11-05T01:36:27.464Z,11.93
2022-11-05T01:38:57.326Z,10.10
2022-11-05T01:41:26.255Z,11.70
2022-11-05T01:43:57.913Z,8.27
2022-11-05T01:46:30.257Z,7.95
2022-11-05T01:49:04.967Z,8.18
2022-11-05T01:51:33.691Z,7.45
2022-11-05T01:54:07.367Z,8.05
2022-11-05T01:56:39.896Z,17.05
2022-11-05T01:59:15.050Z,8.82
2022-11-05T02:01:43.606Z,8.75
2022-11-05T02:04:16.142Z,9.48
2022-11-05T02:06:46.447Z,9.63
2022-11-05T02:09:22.769Z,12.73
2022-11-05T02:11:52.782Z,10.95
2022-11-05T02:14:21.454Z,13.43
2022-11-05T02:16:54.437Z,13.07
2022-11-05T02:20:10.854Z,14.48
2022-11-05T02:23:25.642Z,13.95
2022-11-05T02:26:30.452Z,8.45
2022-11-05T02:29:52.506Z,13.80
2022-11-05T02:32:36.867Z,14.10
2022-11-05T02:35:19.725Z,14.07
2022-11-05T02:37:55.109Z,10.68
2022-11-05T02:40:30.480Z,7.75
2022-11-05T02:43:04.891Z,8.45
2022-11-05T02:45:46.596Z,11.75
2022-11-05T02:48:29.565Z,10.70
2022-11-05T02:51:06.667Z,13.45
2022-11-05T02:53:46.669Z,10.65
2022-11-05T02:56:21.959Z,12.43
2022-11-05T02:58:52.650Z,13.95
2022-11-05T03:01:21.696Z,7.00
2022-11-05T03:03:56.525Z,10.45
2022-11-05T03:06:46.728Z,9.68
2022-11-05T03:09:52.658Z,11.35
2022-11-05T03:12:33.698Z,9.52
2022-11-05T03:15:14.376Z,10.90
2022-11-05T03:17:54.215Z,6.25
2022-11-05T03:20:32.192Z,9.52
2022-11-05T03:23:16.357Z,10.98
2022-11-05T03:25:54.568Z,10.35
2022-11-05T03:28:27.643Z,11.73
2022-11-05T03:30:58.966Z,8.93
2022-11-05T03:33:31.411Z,9.80
2022-11-05T03:36:08.831Z,6.32
2022-11-05T03:38:49.649Z,11.88
2022-11-05T03:41:24.086Z,8.85
2022-11-05T03:44:00.862Z,9.48
2022-11-05T03:46:34.368Z,10.60
2022-11-05T03:49:07.879Z,9.10
2022-11-05T03:51:45.018Z,10.95
2022-11-05T03:54:15.387Z,13.27
2022-11-05T03:57:03.057Z,8.10
2022-11-05T03:59:33.848Z,11.25
2022-11-05T04:02:05.135Z,9.57
2022-11-05T04:04:33.960Z,8.02
2022-11-05T04:07:23.309Z,6.47
2022-11-05T04:10:09.536Z,9.10
2022-11-05T04:12:55.910Z,11.95
2022-11-05T04:15:25.003Z,11.45
2022-11-05T04:17:52.857Z,10.82
2022-11-05T04:20:39.128Z,13.00
2022-11-05T04:23:26.622Z,10.07
2022-11-05T04:25:55.566Z,7.15
2022-11-05T04:28:46.071Z,4.53
2022-11-05T04:31:15.247Z,6.22
2022-11-05T04:33:46.233Z,8.40
2022-11-05T04:36:15.071Z,6.47
2022-11-05T04:38:45.732Z,6.85
2022-11-05T04:41:16.088Z,7.20
2022-11-05T04:43:45.845Z,3.90
2022-11-05T04:46:14.782Z,7.68
2022-11-05T04:48:43.753Z,8.23
2022-11-05T04:51:12.771Z,6.28
2022-11-05T04:53:43.224Z,7.32
2022-11-05T04:56:16.685Z,4.70
2022-11-05T04:58:46.386Z,6.43
2022-11-05T05:01:17.603Z,9.10
2022-11-05T05:03:48.948Z,9.23
2022-11-05T05:06:19.802Z,6.38
2022-11-05T05:08:49.287Z,7.13
2022-11-05T05:11:24.731Z,6.72
2022-11-05T05:13:58.441Z,7.65
2022-11-05T05:16:28.820Z,7.15
2022-11-05T05:18:57.580Z,7.55
2022-11-05T05:21:40.210Z,10.57
2022-11-05T05:24:12.974Z,5.85
2022-11-05T05:26:48.129Z,9.70
2022-11-05T05:29:18.840Z,7.53
2022-11-05T05:31:47.593Z,6.65
2022-11-05T05:34:17.949Z,13.27
2022-11-05T05:36:47.975Z,8.15
2022-11-05T05:39:17.846Z,9.25
2022-11-05T05:41:48.164Z,9.85
2022-11-05T05:44:20.297Z,7.00
2022-11-05T05:46:49.845Z,14.90
2022-11-05T05:49:18.402Z,10.18
2022-11-05T05:51:47.398Z,11.15
2022-11-05T05:54:16.633Z,13.55
2022-11-05T05:56:48.198Z,13.15
2022-11-05T05:59:17.238Z,13.02
2022-11-05T06:01:47.787Z,14.90
2022-11-05T06:04:16.988Z,15.52
2022-11-05T06:06:47.273Z,18.77
2022-11-05T06:09:19.294Z,19.77
2022-11-05T06:11:51.704Z,20.40
2022-11-05T06:14:20.492Z,19.88
2022-11-05T06:16:55.018Z,21.35
2022-11-05T06:19:36.615Z,22.15
2022-11-05T06:22:06.291Z,21.95
2022-11-05T06:24:35.659Z,23.67
2022-11-05T06:33:15.888Z,21.25
2022-11-05T06:35:45.086Z,19.83
2022-11-05T06:38:14.455Z,19.38
2022-11-05T06:40:43.774Z,22.45
2022-11-05T06:43:14.283Z,24.90
2022-11-05T06:45:43.674Z,22.10
2022-11-05T06:48:12.234Z,21.98
2022-11-05T06:53:17.061Z,24.80
2022-11-05T06:55:48.134Z,24.10
2022-11-05T06:58:24.134Z,21.70
2022-11-05T07:01:27.715Z,19.95
2022-11-05T07:04:17.099Z,23.35
2022-11-05T07:06:48.453Z,20.92
2022-11-05T07:09:25.291Z,25.45
2022-11-05T07:11:56.121Z,24.35
2022-11-05T07:14:26.550Z,23.67
2022-11-05T07:16:58.984Z,23.98
2022-11-05T07:19:35.177Z,24.73
2022-11-05T07:22:03.948Z,19.60
2022-11-05T07:24:33.618Z,21.17
2022-11-05T07:27:02.409Z,19.55
2022-11-05T07:29:33.461Z,22.38
2022-11-05T07:32:03.724Z,23.60
2022-11-05T07:34:34.540Z,22.58
2022-11-05T07:37:03.372Z,24.10
2022-11-05T07:39:32.528Z,21.55
2022-11-05T07:42:13.049Z,20.92
2022-11-05T07:44:44.418Z,19.88
2022-11-05T07:47:13.691Z,22.27
2022-11-05T07:49:44.699Z,21.52
2022-11-05T07:52:15.176Z,18.33
2022-11-05T07:54:44.656Z,21.63
2022-11-05T07:57:18.592Z,21.50
2022-11-05T07:59:49.841Z,18.73
2022-11-05T08:02:18.975Z,27.05
2022-11-05T08:04:50.719Z,28.48
2022-11-05T08:07:21.748Z,31.25
2022-11-05T08:09:51.500Z,23.88
2022-11-05T08:12:21.763Z,23.08
2022-11-05T08:14:54.325Z,27.73
2022-11-05T08:17:24.451Z,22.33
2022-11-05T08:19:53.934Z,21.67
2022-11-05T08:22:22.914Z,22.00
2022-11-05T08:24:53.036Z,20.05
2022-11-05T08:27:36.598Z,19.35
2022-11-05T08:30:14.036Z,19.42
2022-11-05T08:33:34.599Z,22.35
2022-11-05T08:36:11.561Z,19.98
2022-11-05T08:38:54.420Z,18.20
2022-11-05T08:41:26.402Z,20.95
2022-11-05T08:43:58.359Z,18.17
2022-11-05T08:46:30.049Z,17.73
2022-11-05T08:49:02.625Z,15.88
2022-11-05T08:51:36.548Z,15.82
2022-11-05T08:54:11.681Z,14.15
2022-11-05T08:56:45.920Z,15.07
2022-11-05T08:59:23.319Z,15.57
2022-11-05T16:10:08.598Z,14.18
2022-11-05T16:12:40.232Z,14.43
2022-11-05T16:20:38.805Z,12.77
2022-11-05T16:23:24.039Z,14.20
2022-11-05T16:25:54.451Z,11.15
2022-11-05T16:28:26.191Z,14.27
2022-11-05T16:30:59.836Z,17.75
2022-11-05T16:33:34.228Z,14.57
2022-11-05T16:36:03.229Z,17.33
2022-11-05T16:38:32.099Z,11.55
2022-11-05T16:41:05.053Z,14.15
2022-11-05T16:43:35.001Z,15.45
2022-11-05T16:46:04.056Z,11.25
2022-11-05T16:48:38.663Z,14.20
2022-11-05T16:51:27.387Z,12.90
2022-11-05T17:02:30.314Z,13.45
2022-11-05T17:05:03.649Z,14.07
2022-11-05T17:07:54.708Z,17.63
2022-11-05T17:10:37.077Z,19.70
2022-11-05T17:13:17.078Z,20.80
2022-11-05T17:15:52.331Z,22.67
2022-11-05T17:18:23.411Z,17.60
2022-11-05T17:20:54.821Z,18.15
2022-11-05T17:23:27.577Z,15.93
2022-11-05T17:26:01.506Z,16.65
2022-11-05T17:28:31.317Z,13.50
2022-11-05T17:31:01.074Z,13.88
2022-11-05T17:33:31.788Z,13.18
2022-11-05T17:36:06.618Z,13.23
2022-11-05T18:24:10.067Z,12.88
2022-11-05T18:26:54.682Z,15.57
2022-11-05T18:29:51.700Z,11.35
2022-11-05T18:51:23.955Z,13.57
2022-11-05T19:28:37.686Z,13.27
2022-11-05T19:31:28.025Z,14.98
2022-11-05T19:38:05.208Z,12.57
2022-11-05T21:47:35.459Z,13.93
2022-11-05T21:57:40.616Z,12.15
